• images/banner/banner1.jpg
  • images/banner/banner2.jpg

Team Member Login

Aviation Weather

[source: ADDS]
METAR
EGVN 181550Z 07011KT CAVOK 09/05 Q1026 NOSIG =
TAF EGVN 181323Z 1815/1915 07012KT 9999 FEW015 PROB40 1902/1909 SCT015 TEMPO 1908/1912 07015G25KT PROB30 TEMPO 1912/1915 -SHRA SCT018
TAF
TAF EGVN 181323Z 1815/1915 07012KT 9999 FEW015 PROB40 1902/1909 SCT015 TEMPO 1908/1912 07015G25KT PROB30 TEMPO 1912/1915 -SHRA SCT018 =